首页
METAR-TAF:

METAR-TAF

机场 :

Watauga County Hospital Heliport

Boone, 北卡罗来纳州, 美国

纬度: 36-12N, 经度: 081-39W, 海拔: 959米

当前天气观测

该预报发布于16分钟前的03:35 UTC
风速11节,风向南转西南,有时为21节阵风
温度 11°C
湿度 100%
气压 1020 hPa
能見度: 2.8公里
毛毛雨

METAR: KTNB 260335Z AUTO 20011G21KT 1 3/4SM DZ 11/11 A3013 RMK AO2 T01060106

时间: 22:51 (03:51 UTC)


TAF: 丢失

超过4000个机场的气象观测和天气预报(METAR&TAF报告)。

可查询的气象台以黄色和红色小点在地图上表示。

将鼠标移到小点上方,可查看气象台名称。

然后点击查看天气观测和预报。

如需切换地图:点击带黑十字的绿色按钮放大地图;点击带横线的绿色按钮缩小地图;或者点击绿色箭头查看邻近地区的地图。


METAR-TAF: